sensor_id;sensor_type;location;lat;lon;timestamp;P1;durP1;ratioP1;P2;durP2;ratioP2
11422;SDS011;5768;51.476;7.210;2023-07-22T00:01:59;8.45;;;6.97;;
11422;SDS011;5768;51.476;7.210;2023-07-22T00:07:02;7.80;;;7.10;;
11422;SDS011;5768;51.476;7.210;2023-07-22T00:12:08;8.05;;;7.10;;
11422;SDS011;5768;51.476;7.210;2023-07-22T00:17:10;8.05;;;6.78;;
11422;SDS011;5768;51.476;7.210;2023-07-22T00:22:14;7.85;;;7.15;;
11422;SDS011;5768;51.476;7.210;2023-07-22T00:27:18;7.80;;;7.00;;
11422;SDS011;5768;51.476;7.210;2023-07-22T00:32:23;7.72;;;6.93;;
11422;SDS011;5768;51.476;7.210;2023-07-22T00:37:34;8.18;;;7.03;;
11422;SDS011;5768;51.476;7.210;2023-07-22T00:42:38;7.55;;;6.68;;
11422;SDS011;5768;51.476;7.210;2023-07-22T00:47:41;8.82;;;7.57;;
11422;SDS011;5768;51.476;7.210;2023-07-22T00:52:45;8.95;;;6.78;;
11422;SDS011;5768;51.476;7.210;2023-07-22T00:57:49;8.70;;;6.90;;
11422;SDS011;5768;51.476;7.210;2023-07-22T01:02:52;7.72;;;7.03;;
11422;SDS011;5768;51.476;7.210;2023-07-22T01:07:55;9.73;;;7.65;;
11422;SDS011;5768;51.476;7.210;2023-07-22T01:12:59;7.70;;;6.95;;
11422;SDS011;5768;51.476;7.210;2023-07-22T01:18:02;7.47;;;6.78;;
11422;SDS011;5768;51.476;7.210;2023-07-22T01:23:06;8.15;;;7.20;;
11422;SDS011;5768;51.476;7.210;2023-07-22T01:28:10;7.47;;;6.78;;
11422;SDS011;5768;51.476;7.210;2023-07-22T01:33:17;7.90;;;7.10;;
11422;SDS011;5768;51.476;7.210;2023-07-22T01:38:22;8.50;;;7.60;;
11422;SDS011;5768;51.476;7.210;2023-07-22T01:43:24;7.15;;;6.45;;
11422;SDS011;5768;51.476;7.210;2023-07-22T01:48:27;9.05;;;7.03;;
11422;SDS011;5768;51.476;7.210;2023-07-22T01:53:31;8.48;;;6.68;;
11422;SDS011;5768;51.476;7.210;2023-07-22T01:58:34;7.35;;;6.65;;
11422;SDS011;5768;51.476;7.210;2023-07-22T02:03:36;7.53;;;6.78;;
11422;SDS011;5768;51.476;7.210;2023-07-22T02:08:43;7.75;;;7.00;;
11422;SDS011;5768;51.476;7.210;2023-07-22T02:13:46;10.70;;;6.60;;
11422;SDS011;5768;51.476;7.210;2023-07-22T02:18:51;8.00;;;6.93;;
11422;SDS011;5768;51.476;7.210;2023-07-22T02:23:58;10.10;;;7.00;;
11422;SDS011;5768;51.476;7.210;2023-07-22T02:29:01;8.80;;;7.05;;
11422;SDS011;5768;51.476;7.210;2023-07-22T02:34:24;7.47;;;6.78;;
11422;SDS011;5768;51.476;7.210;2023-07-22T02:39:29;8.57;;;7.45;;
11422;SDS011;5768;51.476;7.210;2023-07-22T02:44:32;9.60;;;7.47;;
11422;SDS011;5768;51.476;7.210;2023-07-22T02:49:35;8.05;;;6.80;;
11422;SDS011;5768;51.476;7.210;2023-07-22T02:54:40;7.95;;;7.03;;
11422;SDS011;5768;51.476;7.210;2023-07-22T02:59:42;8.07;;;7.13;;
11422;SDS011;5768;51.476;7.210;2023-07-22T03:04:49;8.23;;;7.53;;
11422;SDS011;5768;51.476;7.210;2023-07-22T03:09:53;10.18;;;7.03;;
11422;SDS011;5768;51.476;7.210;2023-07-22T03:14:56;7.40;;;6.75;;
11422;SDS011;5768;51.476;7.210;2023-07-22T03:19:58;9.50;;;7.32;;
11422;SDS011;5768;51.476;7.210;2023-07-22T03:25:02;8.15;;;6.93;;
11422;SDS011;5768;51.476;7.210;2023-07-22T03:30:10;8.90;;;7.47;;
11422;SDS011;5768;51.476;7.210;2023-07-22T03:35:16;7.88;;;7.18;;
11422;SDS011;5768;51.476;7.210;2023-07-22T03:40:20;7.72;;;7.00;;
11422;SDS011;5768;51.476;7.210;2023-07-22T03:45:27;7.60;;;6.80;;
11422;SDS011;5768;51.476;7.210;2023-07-22T03:50:29;8.30;;;7.22;;
11422;SDS011;5768;51.476;7.210;2023-07-22T03:55:33;7.63;;;6.70;;
11422;SDS011;5768;51.476;7.210;2023-07-22T04:00:37;6.65;;;5.97;;
11422;SDS011;5768;51.476;7.210;2023-07-22T04:05:40;7.97;;;6.38;;
11422;SDS011;5768;51.476;7.210;2023-07-22T04:10:51;7.65;;;6.10;;
11422;SDS011;5768;51.476;7.210;2023-07-22T04:15:54;7.22;;;6.28;;
11422;SDS011;5768;51.476;7.210;2023-07-22T04:20:57;6.75;;;6.05;;
11422;SDS011;5768;51.476;7.210;2023-07-22T04:26:03;6.82;;;6.13;;
11422;SDS011;5768;51.476;7.210;2023-07-22T04:31:07;6.90;;;6.20;;
11422;SDS011;5768;51.476;7.210;2023-07-22T04:36:11;6.75;;;6.05;;
11422;SDS011;5768;51.476;7.210;2023-07-22T04:41:15;6.50;;;5.90;;
11422;SDS011;5768;51.476;7.210;2023-07-22T04:46:17;6.05;;;5.45;;
11422;SDS011;5768;51.476;7.210;2023-07-22T04:51:21;8.05;;;5.85;;
11422;SDS011;5768;51.476;7.210;2023-07-22T04:56:24;10.63;;;6.35;;
11422;SDS011;5768;51.476;7.210;2023-07-22T05:01:27;8.50;;;6.07;;
11422;SDS011;5768;51.476;7.210;2023-07-22T05:06:30;10.82;;;6.32;;
11422;SDS011;5768;51.476;7.210;2023-07-22T05:11:34;8.73;;;6.07;;
11422;SDS011;5768;51.476;7.210;2023-07-22T05:16:37;6.53;;;5.60;;
11422;SDS011;5768;51.476;7.210;2023-07-22T05:21:39;7.97;;;5.88;;
11422;SDS011;5768;51.476;7.210;2023-07-22T05:26:44;7.40;;;5.50;;
11422;SDS011;5768;51.476;7.210;2023-07-22T05:31:46;6.55;;;5.72;;
11422;SDS011;5768;51.476;7.210;2023-07-22T05:36:49;8.30;;;5.68;;
11422;SDS011;5768;51.476;7.210;2023-07-22T05:41:53;6.05;;;5.45;;
11422;SDS011;5768;51.476;7.210;2023-07-22T05:46:58;6.15;;;5.43;;
11422;SDS011;5768;51.476;7.210;2023-07-22T05:52:01;6.05;;;5.45;;
11422;SDS011;5768;51.476;7.210;2023-07-22T05:57:05;7.50;;;5.28;;
11422;SDS011;5768;51.476;7.210;2023-07-22T06:02:09;5.65;;;5.13;;
11422;SDS011;5768;51.476;7.210;2023-07-22T06:07:15;6.53;;;5.47;;
11422;SDS011;5768;51.476;7.210;2023-07-22T06:12:20;6.95;;;5.53;;
11422;SDS011;5768;51.476;7.210;2023-07-22T06:17:23;8.65;;;5.88;;
11422;SDS011;5768;51.476;7.210;2023-07-22T06:22:25;9.00;;;5.78;;
11422;SDS011;5768;51.476;7.210;2023-07-22T06:27:31;8.27;;;5.55;;
11422;SDS011;5768;51.476;7.210;2023-07-22T06:32:36;6.93;;;5.72;;
11422;SDS011;5768;51.476;7.210;2023-07-22T06:37:39;8.63;;;5.97;;
11422;SDS011;5768;51.476;7.210;2023-07-22T06:42:49;6.88;;;6.18;;
11422;SDS011;5768;51.476;7.210;2023-07-22T06:47:51;7.85;;;6.00;;
11422;SDS011;5768;51.476;7.210;2023-07-22T06:52:54;8.00;;;6.30;;
11422;SDS011;5768;51.476;7.210;2023-07-22T06:57:57;5.80;;;5.20;;
11422;SDS011;5768;51.476;7.210;2023-07-22T07:03:00;8.40;;;6.10;;
11422;SDS011;5768;51.476;7.210;2023-07-22T07:08:02;7.35;;;5.97;;
11422;SDS011;5768;51.476;7.210;2023-07-22T07:13:07;8.65;;;6.72;;
11422;SDS011;5768;51.476;7.210;2023-07-22T07:18:10;7.55;;;6.70;;
11422;SDS011;5768;51.476;7.210;2023-07-22T07:23:12;7.70;;;6.72;;
11422;SDS011;5768;51.476;7.210;2023-07-22T07:28:18;8.07;;;6.28;;
11422;SDS011;5768;51.476;7.210;2023-07-22T07:33:20;7.30;;;6.60;;
11422;SDS011;5768;51.476;7.210;2023-07-22T07:38:22;7.72;;;6.18;;
11422;SDS011;5768;51.476;7.210;2023-07-22T07:43:26;7.95;;;6.55;;
11422;SDS011;5768;51.476;7.210;2023-07-22T07:48:28;7.88;;;6.68;;
11422;SDS011;5768;51.476;7.210;2023-07-22T07:53:32;11.77;;;6.10;;
11422;SDS011;5768;51.476;7.210;2023-07-22T07:58:36;10.13;;;6.40;;
11422;SDS011;5768;51.476;7.210;2023-07-22T08:03:39;8.50;;;5.32;;
11422;SDS011;5768;51.476;7.210;2023-07-22T08:08:43;7.50;;;6.80;;
11422;SDS011;5768;51.476;7.210;2023-07-22T08:13:46;8.23;;;6.32;;
11422;SDS011;5768;51.476;7.210;2023-07-22T08:18:51;7.55;;;6.82;;
11422;SDS011;5768;51.476;7.210;2023-07-22T08:23:53;8.75;;;7.40;;
11422;SDS011;5768;51.476;7.210;2023-07-22T08:28:57;8.55;;;6.93;;
11422;SDS011;5768;51.476;7.210;2023-07-22T08:33:59;7.97;;;6.78;;
11422;SDS011;5768;51.476;7.210;2023-07-22T08:39:01;9.75;;;7.05;;
11422;SDS011;5768;51.476;7.210;2023-07-22T08:44:06;10.60;;;7.13;;
11422;SDS011;5768;51.476;7.210;2023-07-22T08:49:15;11.65;;;7.47;;
11422;SDS011;5768;51.476;7.210;2023-07-22T08:54:18;8.60;;;7.00;;
11422;SDS011;5768;51.476;7.210;2023-07-22T08:59:23;7.50;;;6.70;;
11422;SDS011;5768;51.476;7.210;2023-07-22T09:04:26;6.97;;;6.28;;
11422;SDS011;5768;51.476;7.210;2023-07-22T09:09:29;7.68;;;6.60;;
11422;SDS011;5768;51.476;7.210;2023-07-22T09:14:34;6.05;;;5.20;;
11422;SDS011;5768;51.476;7.210;2023-07-22T09:19:37;8.50;;;6.10;;
11422;SDS011;5768;51.476;7.210;2023-07-22T09:24:39;5.68;;;4.88;;
11422;SDS011;5768;51.476;7.210;2023-07-22T09:29:43;6.82;;;6.18;;
11422;SDS011;5768;51.476;7.210;2023-07-22T09:34:53;6.32;;;4.75;;
11422;SDS011;5768;51.476;7.210;2023-07-22T09:39:58;5.95;;;4.50;;
11422;SDS011;5768;51.476;7.210;2023-07-22T09:45:02;5.22;;;4.30;;
11422;SDS011;5768;51.476;7.210;2023-07-22T09:50:05;5.00;;;4.60;;
11422;SDS011;5768;51.476;7.210;2023-07-22T09:55:11;5.90;;;4.63;;
11422;SDS011;5768;51.476;7.210;2023-07-22T10:00:16;6.95;;;5.00;;
11422;SDS011;5768;51.476;7.210;2023-07-22T10:05:21;5.65;;;4.78;;
11422;SDS011;5768;51.476;7.210;2023-07-22T10:10:24;6.47;;;4.50;;
11422;SDS011;5768;51.476;7.210;2023-07-22T10:15:33;7.03;;;4.88;;
11422;SDS011;5768;51.476;7.210;2023-07-22T10:20:36;5.07;;;4.50;;
11422;SDS011;5768;51.476;7.210;2023-07-22T10:25:40;5.10;;;4.25;;
11422;SDS011;5768;51.476;7.210;2023-07-22T10:30:45;5.68;;;4.10;;
11422;SDS011;5768;51.476;7.210;2023-07-22T10:36:01;5.15;;;3.95;;
11422;SDS011;5768;51.476;7.210;2023-07-22T10:41:11;4.82;;;3.88;;
11422;SDS011;5768;51.476;7.210;2023-07-22T10:46:18;4.30;;;3.90;;
11422;SDS011;5768;51.476;7.210;2023-07-22T10:51:35;5.10;;;4.40;;
11422;SDS011;5768;51.476;7.210;2023-07-22T10:56:37;6.80;;;3.95;;
11422;SDS011;5768;51.476;7.210;2023-07-22T11:01:44;4.82;;;4.13;;
11422;SDS011;5768;51.476;7.210;2023-07-22T11:06:53;3.58;;;3.05;;
11422;SDS011;5768;51.476;7.210;2023-07-22T11:11:57;4.47;;;3.38;;
11422;SDS011;5768;51.476;7.210;2023-07-22T11:17:07;5.57;;;3.20;;
11422;SDS011;5768;51.476;7.210;2023-07-22T11:22:11;3.83;;;2.85;;
11422;SDS011;5768;51.476;7.210;2023-07-22T11:27:14;2.47;;;1.70;;
11422;SDS011;5768;51.476;7.210;2023-07-22T11:32:19;3.15;;;2.30;;
11422;SDS011;5768;51.476;7.210;2023-07-22T11:37:22;2.63;;;2.40;;
11422;SDS011;5768;51.476;7.210;2023-07-22T11:42:25;3.47;;;2.53;;
11422;SDS011;5768;51.476;7.210;2023-07-22T11:47:32;2.90;;;2.60;;
11422;SDS011;5768;51.476;7.210;2023-07-22T11:52:36;2.60;;;2.40;;
11422;SDS011;5768;51.476;7.210;2023-07-22T11:57:38;2.88;;;2.30;;
11422;SDS011;5768;51.476;7.210;2023-07-22T12:02:43;2.95;;;2.40;;
11422;SDS011;5768;51.476;7.210;2023-07-22T12:07:46;3.85;;;2.50;;
11422;SDS011;5768;51.476;7.210;2023-07-22T12:12:48;3.00;;;2.40;;
11422;SDS011;5768;51.476;7.210;2023-07-22T12:17:53;2.95;;;2.25;;
11422;SDS011;5768;51.476;7.210;2023-07-22T12:22:57;3.00;;;2.40;;
11422;SDS011;5768;51.476;7.210;2023-07-22T12:28:00;2.35;;;2.13;;
11422;SDS011;5768;51.476;7.210;2023-07-22T12:33:05;3.47;;;2.17;;
11422;SDS011;5768;51.476;7.210;2023-07-22T12:38:08;1.98;;;1.83;;
11422;SDS011;5768;51.476;7.210;2023-07-22T12:43:10;2.60;;;2.17;;
11422;SDS011;5768;51.476;7.210;2023-07-22T12:48:14;2.35;;;2.05;;
11422;SDS011;5768;51.476;7.210;2023-07-22T12:53:20;2.05;;;1.85;;
11422;SDS011;5768;51.476;7.210;2023-07-22T12:58:22;2.28;;;1.90;;
11422;SDS011;5768;51.476;7.210;2023-07-22T13:03:26;1.85;;;1.75;;
11422;SDS011;5768;51.476;7.210;2023-07-22T13:08:29;2.20;;;2.00;;
11422;SDS011;5768;51.476;7.210;2023-07-22T13:13:31;4.93;;;2.38;;
11422;SDS011;5768;51.476;7.210;2023-07-22T13:18:35;2.30;;;2.10;;
11422;SDS011;5768;51.476;7.210;2023-07-22T13:23:37;4.40;;;2.47;;
11422;SDS011;5768;51.476;7.210;2023-07-22T13:28:40;2.92;;;2.60;;
11422;SDS011;5768;51.476;7.210;2023-07-22T13:33:43;3.22;;;2.25;;
11422;SDS011;5768;51.476;7.210;2023-07-22T13:38:46;3.13;;;2.78;;
11422;SDS011;5768;51.476;7.210;2023-07-22T13:43:48;4.70;;;2.53;;
11422;SDS011;5768;51.476;7.210;2023-07-22T13:48:52;2.83;;;2.33;;
11422;SDS011;5768;51.476;7.210;2023-07-22T13:53:54;3.63;;;2.70;;
11422;SDS011;5768;51.476;7.210;2023-07-22T13:58:58;3.80;;;2.28;;
11422;SDS011;5768;51.476;7.210;2023-07-22T14:04:05;3.28;;;2.40;;
11422;SDS011;5768;51.476;7.210;2023-07-22T14:09:12;3.30;;;2.60;;
11422;SDS011;5768;51.476;7.210;2023-07-22T14:14:14;2.50;;;2.30;;
11422;SDS011;5768;51.476;7.210;2023-07-22T14:19:18;2.45;;;2.25;;
11422;SDS011;5768;51.476;7.210;2023-07-22T14:24:21;2.40;;;2.17;;
11422;SDS011;5768;51.476;7.210;2023-07-22T14:29:23;2.53;;;2.30;;
11422;SDS011;5768;51.476;7.210;2023-07-22T14:34:27;2.17;;;2.00;;
11422;SDS011;5768;51.476;7.210;2023-07-22T14:39:30;3.15;;;2.38;;
11422;SDS011;5768;51.476;7.210;2023-07-22T14:44:32;2.70;;;2.50;;
11422;SDS011;5768;51.476;7.210;2023-07-22T14:49:36;3.25;;;2.75;;
11422;SDS011;5768;51.476;7.210;2023-07-22T14:54:38;5.38;;;2.70;;
11422;SDS011;5768;51.476;7.210;2023-07-22T14:59:40;2.78;;;2.58;;
11422;SDS011;5768;51.476;7.210;2023-07-22T15:04:44;4.72;;;3.22;;
11422;SDS011;5768;51.476;7.210;2023-07-22T15:09:46;2.95;;;2.60;;
11422;SDS011;5768;51.476;7.210;2023-07-22T15:14:48;3.40;;;2.53;;
11422;SDS011;5768;51.476;7.210;2023-07-22T15:19:52;2.90;;;2.55;;
11422;SDS011;5768;51.476;7.210;2023-07-22T15:24:54;3.60;;;2.40;;
11422;SDS011;5768;51.476;7.210;2023-07-22T15:29:57;3.35;;;2.90;;
11422;SDS011;5768;51.476;7.210;2023-07-22T15:35:00;6.20;;;3.92;;
11422;SDS011;5768;51.476;7.210;2023-07-22T15:40:03;3.58;;;2.70;;
11422;SDS011;5768;51.476;7.210;2023-07-22T15:45:06;4.90;;;3.00;;
11422;SDS011;5768;51.476;7.210;2023-07-22T15:50:12;4.18;;;2.92;;
11422;SDS011;5768;51.476;7.210;2023-07-22T15:55:14;4.18;;;2.47;;
11422;SDS011;5768;51.476;7.210;2023-07-22T16:00:16;3.00;;;2.70;;
11422;SDS011;5768;51.476;7.210;2023-07-22T16:05:20;4.10;;;2.90;;
11422;SDS011;5768;51.476;7.210;2023-07-22T16:10:23;2.78;;;2.45;;
11422;SDS011;5768;51.476;7.210;2023-07-22T16:15:25;3.15;;;2.60;;
11422;SDS011;5768;51.476;7.210;2023-07-22T16:20:29;2.78;;;2.53;;
11422;SDS011;5768;51.476;7.210;2023-07-22T16:25:31;4.15;;;2.30;;
11422;SDS011;5768;51.476;7.210;2023-07-22T16:30:33;2.22;;;2.10;;
11422;SDS011;5768;51.476;7.210;2023-07-22T16:35:37;4.28;;;2.20;;
11422;SDS011;5768;51.476;7.210;2023-07-22T16:40:40;2.67;;;2.10;;
11422;SDS011;5768;51.476;7.210;2023-07-22T16:45:42;2.58;;;2.30;;
11422;SDS011;5768;51.476;7.210;2023-07-22T16:50:45;3.60;;;2.30;;
11422;SDS011;5768;51.476;7.210;2023-07-22T16:55:48;2.13;;;1.88;;
11422;SDS011;5768;51.476;7.210;2023-07-22T17:00:50;2.60;;;1.98;;
11422;SDS011;5768;51.476;7.210;2023-07-22T17:05:54;2.13;;;2.00;;
11422;SDS011;5768;51.476;7.210;2023-07-22T17:10:56;3.25;;;2.25;;
11422;SDS011;5768;51.476;7.210;2023-07-22T17:15:58;3.65;;;2.53;;
11422;SDS011;5768;51.476;7.210;2023-07-22T17:21:02;3.47;;;2.40;;
11422;SDS011;5768;51.476;7.210;2023-07-22T17:26:04;3.15;;;2.42;;
11422;SDS011;5768;51.476;7.210;2023-07-22T17:31:07;3.85;;;2.97;;
11422;SDS011;5768;51.476;7.210;2023-07-22T17:36:11;4.95;;;2.60;;
11422;SDS011;5768;51.476;7.210;2023-07-22T17:41:13;4.35;;;2.90;;
11422;SDS011;5768;51.476;7.210;2023-07-22T17:46:15;6.38;;;3.08;;
11422;SDS011;5768;51.476;7.210;2023-07-22T17:51:19;3.10;;;2.80;;
11422;SDS011;5768;51.476;7.210;2023-07-22T17:56:21;4.43;;;3.03;;
11422;SDS011;5768;51.476;7.210;2023-07-22T18:01:23;3.85;;;2.90;;
11422;SDS011;5768;51.476;7.210;2023-07-22T18:06:27;3.45;;;3.08;;
11422;SDS011;5768;51.476;7.210;2023-07-22T18:11:31;3.50;;;3.20;;
11422;SDS011;5768;51.476;7.210;2023-07-22T18:16:33;5.00;;;3.08;;
11422;SDS011;5768;51.476;7.210;2023-07-22T18:21:38;3.50;;;3.00;;
11422;SDS011;5768;51.476;7.210;2023-07-22T18:26:40;5.20;;;2.95;;
11422;SDS011;5768;51.476;7.210;2023-07-22T18:31:42;2.90;;;2.60;;
11422;SDS011;5768;51.476;7.210;2023-07-22T18:36:46;3.30;;;2.97;;
11422;SDS011;5768;51.476;7.210;2023-07-22T18:41:48;4.78;;;2.80;;
11422;SDS011;5768;51.476;7.210;2023-07-22T18:46:51;5.50;;;2.90;;
11422;SDS011;5768;51.476;7.210;2023-07-22T18:51:54;5.45;;;2.40;;
11422;SDS011;5768;51.476;7.210;2023-07-22T18:56:57;3.17;;;2.53;;
11422;SDS011;5768;51.476;7.210;2023-07-22T19:01:59;3.28;;;2.45;;
11422;SDS011;5768;51.476;7.210;2023-07-22T19:07:05;3.08;;;2.78;;
11422;SDS011;5768;51.476;7.210;2023-07-22T19:12:08;4.93;;;2.72;;
11422;SDS011;5768;51.476;7.210;2023-07-22T19:17:10;4.03;;;2.42;;
11422;SDS011;5768;51.476;7.210;2023-07-22T19:22:14;6.18;;;2.83;;
11422;SDS011;5768;51.476;7.210;2023-07-22T19:27:16;3.03;;;2.65;;
11422;SDS011;5768;51.476;7.210;2023-07-22T19:32:18;4.65;;;2.78;;
11422;SDS011;5768;51.476;7.210;2023-07-22T19:37:22;3.97;;;3.58;;
11422;SDS011;5768;51.476;7.210;2023-07-22T19:42:24;4.10;;;2.72;;
11422;SDS011;5768;51.476;7.210;2023-07-22T19:47:27;5.80;;;2.88;;
11422;SDS011;5768;51.476;7.210;2023-07-22T19:52:34;4.18;;;2.95;;
11422;SDS011;5768;51.476;7.210;2023-07-22T19:57:36;4.50;;;2.95;;
11422;SDS011;5768;51.476;7.210;2023-07-22T20:02:38;4.38;;;2.70;;
11422;SDS011;5768;51.476;7.210;2023-07-22T20:07:42;4.65;;;2.80;;
11422;SDS011;5768;51.476;7.210;2023-07-22T20:12:44;10.10;;;3.30;;
11422;SDS011;5768;51.476;7.210;2023-07-22T20:17:46;3.97;;;2.85;;
11422;SDS011;5768;51.476;7.210;2023-07-22T20:22:52;5.82;;;3.00;;
11422;SDS011;5768;51.476;7.210;2023-07-22T20:27:55;3.47;;;2.65;;
11422;SDS011;5768;51.476;7.210;2023-07-22T20:32:58;5.75;;;3.03;;
11422;SDS011;5768;51.476;7.210;2023-07-22T20:38:02;4.85;;;2.80;;
11422;SDS011;5768;51.476;7.210;2023-07-22T20:43:05;6.82;;;2.70;;
11422;SDS011;5768;51.476;7.210;2023-07-22T20:48:07;3.50;;;2.67;;
11422;SDS011;5768;51.476;7.210;2023-07-22T20:53:11;4.55;;;2.55;;
11422;SDS011;5768;51.476;7.210;2023-07-22T20:58:13;4.72;;;3.00;;
11422;SDS011;5768;51.476;7.210;2023-07-22T21:03:15;3.15;;;2.80;;
11422;SDS011;5768;51.476;7.210;2023-07-22T21:08:19;5.18;;;2.67;;
11422;SDS011;5768;51.476;7.210;2023-07-22T21:13:22;4.43;;;2.80;;
11422;SDS011;5768;51.476;7.210;2023-07-22T21:18:25;2.95;;;2.65;;
11422;SDS011;5768;51.476;7.210;2023-07-22T21:23:28;5.70;;;3.03;;
11422;SDS011;5768;51.476;7.210;2023-07-22T21:28:31;4.25;;;3.17;;
11422;SDS011;5768;51.476;7.210;2023-07-22T21:33:33;4.22;;;2.88;;
11422;SDS011;5768;51.476;7.210;2023-07-22T21:38:38;3.40;;;2.85;;
11422;SDS011;5768;51.476;7.210;2023-07-22T21:43:40;3.72;;;3.05;;
11422;SDS011;5768;51.476;7.210;2023-07-22T21:48:42;3.63;;;2.90;;
11422;SDS011;5768;51.476;7.210;2023-07-22T21:53:46;3.92;;;3.22;;
11422;SDS011;5768;51.476;7.210;2023-07-22T21:58:49;5.00;;;2.97;;
11422;SDS011;5768;51.476;7.210;2023-07-22T22:03:52;3.95;;;3.10;;
11422;SDS011;5768;51.476;7.210;2023-07-22T22:08:55;5.40;;;3.33;;
11422;SDS011;5768;51.476;7.210;2023-07-22T22:13:58;5.57;;;3.40;;
11422;SDS011;5768;51.476;7.210;2023-07-22T22:19:00;5.97;;;3.10;;
11422;SDS011;5768;51.476;7.210;2023-07-22T22:24:04;6.13;;;3.58;;
11422;SDS011;5768;51.476;7.210;2023-07-22T22:29:07;5.07;;;3.25;;
11422;SDS011;5768;51.476;7.210;2023-07-22T22:34:09;4.85;;;3.35;;
11422;SDS011;5768;51.476;7.210;2023-07-22T22:39:13;7.80;;;3.72;;
11422;SDS011;5768;51.476;7.210;2023-07-22T22:44:15;4.03;;;3.60;;
11422;SDS011;5768;51.476;7.210;2023-07-22T22:49:17;6.18;;;3.95;;
11422;SDS011;5768;51.476;7.210;2023-07-22T22:54:24;4.32;;;3.70;;
11422;SDS011;5768;51.476;7.210;2023-07-22T22:59:26;4.95;;;3.80;;
11422;SDS011;5768;51.476;7.210;2023-07-22T23:04:28;5.22;;;4.18;;
11422;SDS011;5768;51.476;7.210;2023-07-22T23:09:32;4.30;;;3.85;;
11422;SDS011;5768;51.476;7.210;2023-07-22T23:14:34;6.80;;;4.13;;
11422;SDS011;5768;51.476;7.210;2023-07-22T23:19:37;5.22;;;3.92;;
11422;SDS011;5768;51.476;7.210;2023-07-22T23:24:40;6.63;;;3.83;;
11422;SDS011;5768;51.476;7.210;2023-07-22T23:29:43;5.30;;;3.90;;
11422;SDS011;5768;51.476;7.210;2023-07-22T23:34:45;4.43;;;3.60;;
11422;SDS011;5768;51.476;7.210;2023-07-22T23:39:49;4.97;;;3.47;;
11422;SDS011;5768;51.476;7.210;2023-07-22T23:44:51;5.43;;;4.28;;
11422;SDS011;5768;51.476;7.210;2023-07-22T23:49:53;5.28;;;3.78;;
11422;SDS011;5768;51.476;7.210;2023-07-22T23:54:56;8.18;;;4.38;;
11422;SDS011;5768;51.476;7.210;2023-07-22T23:59:59;4.60;;;3.90;;
